sensor_id;sensor_type;location;lat;lon;timestamp;P1;durP1;ratioP1;P2;durP2;ratioP2
21517;SDS011;61765;45.794;24.150;2023-02-15T00:00:10;84.78;;;45.35;;
21517;SDS011;61765;45.794;24.150;2023-02-15T00:08:16;80.32;;;43.60;;
21517;SDS011;61765;45.794;24.150;2023-02-15T00:16:24;108.03;;;56.33;;
21517;SDS011;61765;45.794;24.150;2023-02-15T00:24:29;80.95;;;44.10;;
21517;SDS011;61765;45.794;24.150;2023-02-15T00:32:37;80.60;;;43.60;;
21517;SDS011;61765;45.794;24.150;2023-02-15T00:40:43;79.80;;;43.92;;
21517;SDS011;61765;45.794;24.150;2023-02-15T00:48:51;74.57;;;41.25;;
21517;SDS011;61765;45.794;24.150;2023-02-15T00:56:57;79.72;;;41.67;;
21517;SDS011;61765;45.794;24.150;2023-02-15T01:05:05;78.70;;;42.10;;
21517;SDS011;61765;45.794;24.150;2023-02-15T01:13:11;75.95;;;43.67;;
21517;SDS011;61765;45.794;24.150;2023-02-15T01:21:20;77.57;;;40.67;;
21517;SDS011;61765;45.794;24.150;2023-02-15T01:29:27;75.35;;;41.45;;
21517;SDS011;61765;45.794;24.150;2023-02-15T01:37:35;67.80;;;36.55;;
21517;SDS011;61765;45.794;24.150;2023-02-15T01:45:41;65.63;;;38.03;;
21517;SDS011;61765;45.794;24.150;2023-02-15T01:53:51;63.45;;;36.50;;
21517;SDS011;61765;45.794;24.150;2023-02-15T02:10:12;65.50;;;36.97;;
21517;SDS011;61765;45.794;24.150;2023-02-15T02:18:25;73.13;;;40.15;;
21517;SDS011;61765;45.794;24.150;2023-02-15T02:26:54;79.00;;;44.70;;
21517;SDS011;61765;45.794;24.150;2023-02-15T02:35:25;82.70;;;45.13;;
21517;SDS011;61765;45.794;24.150;2023-02-15T02:43:35;77.57;;;42.03;;
21517;SDS011;61765;45.794;24.150;2023-02-15T02:51:59;75.78;;;41.63;;
21517;SDS011;61765;45.794;24.150;2023-02-15T03:00:07;75.70;;;41.50;;
21517;SDS011;61765;45.794;24.150;2023-02-15T03:08:16;73.88;;;39.30;;
21517;SDS011;61765;45.794;24.150;2023-02-15T03:16:29;67.43;;;37.00;;
21517;SDS011;61765;45.794;24.150;2023-02-15T03:24:39;60.28;;;33.67;;
21517;SDS011;61765;45.794;24.150;2023-02-15T03:40:58;61.03;;;34.47;;
21517;SDS011;61765;45.794;24.150;2023-02-15T03:49:16;65.70;;;34.65;;
21517;SDS011;61765;45.794;24.150;2023-02-15T03:57:28;66.13;;;35.45;;
21517;SDS011;61765;45.794;24.150;2023-02-15T04:05:46;70.28;;;37.00;;
21517;SDS011;61765;45.794;24.150;2023-02-15T04:13:54;61.67;;;35.08;;
21517;SDS011;61765;45.794;24.150;2023-02-15T04:22:20;64.97;;;35.08;;
21517;SDS011;61765;45.794;24.150;2023-02-15T04:30:41;49.90;;;26.67;;
21517;SDS011;61765;45.794;24.150;2023-02-15T04:38:46;57.40;;;32.05;;
21517;SDS011;61765;45.794;24.150;2023-02-15T04:46:54;59.15;;;33.90;;
21517;SDS011;61765;45.794;24.150;2023-02-15T04:54:59;59.10;;;32.45;;
21517;SDS011;61765;45.794;24.150;2023-02-15T05:03:08;58.55;;;31.83;;
21517;SDS011;61765;45.794;24.150;2023-02-15T05:11:13;52.28;;;29.80;;
21517;SDS011;61765;45.794;24.150;2023-02-15T05:19:21;54.70;;;30.15;;
21517;SDS011;61765;45.794;24.150;2023-02-15T05:27:27;53.38;;;30.55;;
21517;SDS011;61765;45.794;24.150;2023-02-15T05:35:47;55.40;;;29.92;;
21517;SDS011;61765;45.794;24.150;2023-02-15T05:43:54;50.40;;;29.20;;
21517;SDS011;61765;45.794;24.150;2023-02-15T05:52:03;53.28;;;29.75;;
21517;SDS011;61765;45.794;24.150;2023-02-15T06:00:09;54.60;;;30.42;;
21517;SDS011;61765;45.794;24.150;2023-02-15T06:08:18;55.83;;;30.92;;
21517;SDS011;61765;45.794;24.150;2023-02-15T06:16:24;54.38;;;30.60;;
21517;SDS011;61765;45.794;24.150;2023-02-15T06:24:32;60.70;;;34.65;;
21517;SDS011;61765;45.794;24.150;2023-02-15T06:32:37;70.30;;;39.08;;
21517;SDS011;61765;45.794;24.150;2023-02-15T06:40:45;69.22;;;39.47;;
21517;SDS011;61765;45.794;24.150;2023-02-15T06:48:51;67.80;;;38.03;;
21517;SDS011;61765;45.794;24.150;2023-02-15T06:56:59;77.40;;;40.83;;
21517;SDS011;61765;45.794;24.150;2023-02-15T07:05:04;71.35;;;39.60;;
21517;SDS011;61765;45.794;24.150;2023-02-15T07:13:13;71.20;;;40.05;;
21517;SDS011;61765;45.794;24.150;2023-02-15T07:21:18;83.55;;;44.47;;
21517;SDS011;61765;45.794;24.150;2023-02-15T07:29:26;72.60;;;42.33;;
21517;SDS011;61765;45.794;24.150;2023-02-15T07:37:32;59.25;;;34.50;;
21517;SDS011;61765;45.794;24.150;2023-02-15T07:45:40;59.00;;;33.92;;
21517;SDS011;61765;45.794;24.150;2023-02-15T07:53:45;52.42;;;32.38;;
21517;SDS011;61765;45.794;24.150;2023-02-15T08:01:55;58.10;;;35.40;;
21517;SDS011;61765;45.794;24.150;2023-02-15T08:10:01;63.78;;;33.50;;
21517;SDS011;61765;45.794;24.150;2023-02-15T08:18:09;61.05;;;36.15;;
21517;SDS011;61765;45.794;24.150;2023-02-15T08:26:14;66.82;;;40.80;;
21517;SDS011;61765;45.794;24.150;2023-02-15T08:34:23;73.35;;;43.88;;
21517;SDS011;61765;45.794;24.150;2023-02-15T08:42:29;62.15;;;37.53;;
21517;SDS011;61765;45.794;24.150;2023-02-15T08:50:37;61.15;;;37.08;;
21517;SDS011;61765;45.794;24.150;2023-02-15T08:58:42;62.20;;;39.28;;
21517;SDS011;61765;45.794;24.150;2023-02-15T09:06:50;68.25;;;41.05;;
21517;SDS011;61765;45.794;24.150;2023-02-15T09:14:56;47.13;;;31.15;;
21517;SDS011;61765;45.794;24.150;2023-02-15T09:23:05;32.63;;;22.50;;
21517;SDS011;61765;45.794;24.150;2023-02-15T09:31:23;28.38;;;20.25;;
21517;SDS011;61765;45.794;24.150;2023-02-15T09:39:40;28.15;;;22.48;;
21517;SDS011;61765;45.794;24.150;2023-02-15T09:56:28;25.33;;;19.67;;
21517;SDS011;61765;45.794;24.150;2023-02-15T10:04:42;20.05;;;17.40;;
21517;SDS011;61765;45.794;24.150;2023-02-15T10:13:00;23.40;;;18.65;;
21517;SDS011;61765;45.794;24.150;2023-02-15T10:21:19;21.13;;;17.30;;
21517;SDS011;61765;45.794;24.150;2023-02-15T10:29:45;15.55;;;13.65;;
21517;SDS011;61765;45.794;24.150;2023-02-15T10:38:03;14.85;;;11.98;;
21517;SDS011;61765;45.794;24.150;2023-02-15T10:46:23;15.75;;;13.25;;
21517;SDS011;61765;45.794;24.150;2023-02-15T10:54:47;19.08;;;15.00;;
21517;SDS011;61765;45.794;24.150;2023-02-15T11:03:10;17.13;;;13.23;;
21517;SDS011;61765;45.794;24.150;2023-02-15T11:11:28;21.80;;;14.00;;
21517;SDS011;61765;45.794;24.150;2023-02-15T11:19:41;21.55;;;14.73;;
21517;SDS011;61765;45.794;24.150;2023-02-15T11:27:52;24.98;;;15.38;;
21517;SDS011;61765;45.794;24.150;2023-02-15T11:36:03;22.95;;;16.33;;
21517;SDS011;61765;45.794;24.150;2023-02-15T11:44:14;23.88;;;15.10;;
21517;SDS011;61765;45.794;24.150;2023-02-15T11:52:27;23.25;;;14.98;;
21517;SDS011;61765;45.794;24.150;2023-02-15T12:00:32;23.95;;;14.40;;
21517;SDS011;61765;45.794;24.150;2023-02-15T12:08:46;24.63;;;15.30;;
21517;SDS011;61765;45.794;24.150;2023-02-15T12:16:57;26.33;;;16.05;;
21517;SDS011;61765;45.794;24.150;2023-02-15T12:25:19;22.52;;;13.65;;
21517;SDS011;61765;45.794;24.150;2023-02-15T12:33:28;20.42;;;13.00;;
21517;SDS011;61765;45.794;24.150;2023-02-15T12:41:38;17.65;;;11.65;;
21517;SDS011;61765;45.794;24.150;2023-02-15T12:50:03;18.88;;;11.73;;
21517;SDS011;61765;45.794;24.150;2023-02-15T12:58:22;19.40;;;12.52;;
21517;SDS011;61765;45.794;24.150;2023-02-15T13:06:29;20.00;;;11.55;;
21517;SDS011;61765;45.794;24.150;2023-02-15T13:14:42;18.23;;;11.30;;
21517;SDS011;61765;45.794;24.150;2023-02-15T13:22:50;17.75;;;11.43;;
21517;SDS011;61765;45.794;24.150;2023-02-15T13:31:02;21.33;;;12.73;;
21517;SDS011;61765;45.794;24.150;2023-02-15T13:39:10;19.77;;;13.15;;
21517;SDS011;61765;45.794;24.150;2023-02-15T13:47:27;20.90;;;12.60;;
21517;SDS011;61765;45.794;24.150;2023-02-15T13:55:39;22.98;;;13.40;;
21517;SDS011;61765;45.794;24.150;2023-02-15T14:03:59;27.00;;;15.87;;
21517;SDS011;61765;45.794;24.150;2023-02-15T14:12:27;23.85;;;13.88;;
21517;SDS011;61765;45.794;24.150;2023-02-15T14:20:51;21.88;;;14.35;;
21517;SDS011;61765;45.794;24.150;2023-02-15T14:29:07;25.20;;;15.32;;
21517;SDS011;61765;45.794;24.150;2023-02-15T14:37:26;27.25;;;15.30;;
21517;SDS011;61765;45.794;24.150;2023-02-15T14:45:39;29.58;;;15.20;;
21517;SDS011;61765;45.794;24.150;2023-02-15T14:53:53;28.47;;;16.33;;
21517;SDS011;61765;45.794;24.150;2023-02-15T15:02:03;26.95;;;13.60;;
21517;SDS011;61765;45.794;24.150;2023-02-15T15:18:43;25.60;;;14.98;;
21517;SDS011;61765;45.794;24.150;2023-02-15T15:26:53;27.75;;;16.10;;
21517;SDS011;61765;45.794;24.150;2023-02-15T15:35:34;59.95;;;29.08;;
21517;SDS011;61765;45.794;24.150;2023-02-15T15:43:54;54.38;;;27.80;;
21517;SDS011;61765;45.794;24.150;2023-02-15T15:52:21;40.33;;;22.13;;
21517;SDS011;61765;45.794;24.150;2023-02-15T16:00:33;32.92;;;19.02;;
21517;SDS011;61765;45.794;24.150;2023-02-15T16:08:41;30.17;;;17.30;;
21517;SDS011;61765;45.794;24.150;2023-02-15T16:16:51;33.60;;;19.17;;
21517;SDS011;61765;45.794;24.150;2023-02-15T16:25:03;37.38;;;20.13;;
21517;SDS011;61765;45.794;24.150;2023-02-15T16:33:33;43.13;;;24.58;;
21517;SDS011;61765;45.794;24.150;2023-02-15T16:41:40;52.72;;;27.27;;
21517;SDS011;61765;45.794;24.150;2023-02-15T16:49:51;38.08;;;21.58;;
21517;SDS011;61765;45.794;24.150;2023-02-15T16:57:59;39.47;;;22.50;;
21517;SDS011;61765;45.794;24.150;2023-02-15T17:06:19;45.42;;;27.15;;
21517;SDS011;61765;45.794;24.150;2023-02-15T17:14:28;46.38;;;27.27;;
21517;SDS011;61765;45.794;24.150;2023-02-15T17:22:38;49.40;;;27.98;;
21517;SDS011;61765;45.794;24.150;2023-02-15T17:30:44;53.88;;;29.05;;
21517;SDS011;61765;45.794;24.150;2023-02-15T17:39:04;58.20;;;32.15;;
21517;SDS011;61765;45.794;24.150;2023-02-15T17:47:14;53.03;;;31.05;;
21517;SDS011;61765;45.794;24.150;2023-02-15T17:55:26;60.60;;;32.05;;
21517;SDS011;61765;45.794;24.150;2023-02-15T18:03:44;64.32;;;35.15;;
21517;SDS011;61765;45.794;24.150;2023-02-15T18:12:14;74.88;;;37.83;;
21517;SDS011;61765;45.794;24.150;2023-02-15T18:20:25;82.82;;;42.72;;
21517;SDS011;61765;45.794;24.150;2023-02-15T18:28:39;68.68;;;35.13;;
21517;SDS011;61765;45.794;24.150;2023-02-15T18:36:45;65.38;;;33.67;;
21517;SDS011;61765;45.794;24.150;2023-02-15T18:44:54;129.15;;;49.47;;
21517;SDS011;61765;45.794;24.150;2023-02-15T18:53:01;79.78;;;43.35;;
21517;SDS011;61765;45.794;24.150;2023-02-15T19:01:14;99.93;;;50.65;;
21517;SDS011;61765;45.794;24.150;2023-02-15T19:09:22;95.60;;;47.40;;
21517;SDS011;61765;45.794;24.150;2023-02-15T19:17:32;91.95;;;48.85;;
21517;SDS011;61765;45.794;24.150;2023-02-15T19:25:40;146.73;;;65.43;;
21517;SDS011;61765;45.794;24.150;2023-02-15T19:33:49;121.90;;;55.90;;
21517;SDS011;61765;45.794;24.150;2023-02-15T19:41:54;96.95;;;48.17;;
21517;SDS011;61765;45.794;24.150;2023-02-15T19:50:02;95.15;;;50.60;;
21517;SDS011;61765;45.794;24.150;2023-02-15T19:58:08;99.32;;;50.90;;
21517;SDS011;61765;45.794;24.150;2023-02-15T20:06:19;83.30;;;44.58;;
21517;SDS011;61765;45.794;24.150;2023-02-15T20:14:24;105.65;;;53.78;;
21517;SDS011;61765;45.794;24.150;2023-02-15T20:22:33;103.47;;;54.28;;
21517;SDS011;61765;45.794;24.150;2023-02-15T20:30:38;109.13;;;55.35;;
21517;SDS011;61765;45.794;24.150;2023-02-15T20:38:47;104.85;;;55.67;;
21517;SDS011;61765;45.794;24.150;2023-02-15T20:46:54;116.00;;;59.50;;
21517;SDS011;61765;45.794;24.150;2023-02-15T20:55:08;92.68;;;48.50;;
21517;SDS011;61765;45.794;24.150;2023-02-15T21:03:22;87.53;;;45.75;;
21517;SDS011;61765;45.794;24.150;2023-02-15T21:11:34;89.40;;;46.23;;
21517;SDS011;61765;45.794;24.150;2023-02-15T21:19:41;106.85;;;55.28;;
21517;SDS011;61765;45.794;24.150;2023-02-15T21:27:49;109.55;;;54.35;;
21517;SDS011;61765;45.794;24.150;2023-02-15T21:35:55;97.57;;;50.85;;
21517;SDS011;61765;45.794;24.150;2023-02-15T21:44:05;80.60;;;42.83;;
21517;SDS011;61765;45.794;24.150;2023-02-15T21:52:31;76.78;;;41.85;;
21517;SDS011;61765;45.794;24.150;2023-02-15T22:00:40;104.65;;;54.47;;
21517;SDS011;61765;45.794;24.150;2023-02-15T22:08:45;111.20;;;56.20;;
21517;SDS011;61765;45.794;24.150;2023-02-15T22:16:53;74.47;;;39.80;;
21517;SDS011;61765;45.794;24.150;2023-02-15T22:24:59;74.65;;;39.83;;
21517;SDS011;61765;45.794;24.150;2023-02-15T22:33:08;91.43;;;44.75;;
21517;SDS011;61765;45.794;24.150;2023-02-15T22:41:24;74.55;;;38.67;;
21517;SDS011;61765;45.794;24.150;2023-02-15T22:49:35;64.50;;;33.35;;
21517;SDS011;61765;45.794;24.150;2023-02-15T22:57:41;56.28;;;30.38;;
21517;SDS011;61765;45.794;24.150;2023-02-15T23:05:50;63.85;;;32.95;;
21517;SDS011;61765;45.794;24.150;2023-02-15T23:13:56;63.60;;;32.25;;
21517;SDS011;61765;45.794;24.150;2023-02-15T23:22:06;63.17;;;34.20;;
21517;SDS011;61765;45.794;24.150;2023-02-15T23:38:25;72.60;;;36.53;;
21517;SDS011;61765;45.794;24.150;2023-02-15T23:46:32;68.03;;;34.10;;
21517;SDS011;61765;45.794;24.150;2023-02-15T23:54:45;71.75;;;35.95;;
